This is the latest recevied weather packets stored in our database for station/object WA4TPR. If no packets are shown the sender has not sent any weather packets the latest 10 day(s).
| Time | Temp. | Humidity | Pressure | Rain* | Wind** | Luminosity | Snow |
|---|---|---|---|---|---|---|---|
| 1778103924 | 32.78° C | 42% | 1018.9 hPa | 0 mm | - | 340 W/m² | - |
| 1778103621 | 33.89° C | 41% | 1018.9 hPa | 0 mm | - | 347 W/m² | - |
| 1778103319 | 33.89° C | 43% | 1018.8 hPa | 0 mm | - | 364 W/m² | - |
| 1778103016 | 33.89° C | 39% | 1019 hPa | 0 mm | - | 367 W/m² | - |
| 1778102713 | 34.44° C | 39% | 1019 hPa | 0 mm | - | 394 W/m² | - |
| 1778102408 | 35° C | 38% | 1019 hPa | 0 mm | - | 416 W/m² | - |
| 1778102103 | 33.89° C | 39% | 1018.9 hPa | 0 mm | - | 410 W/m² | - |
| 1778101801 | 33.89° C | 38% | 1018.9 hPa | 0 mm | - | 442 W/m² | - |
| 1778101497 | 34.44° C | 39% | 1018.8 hPa | 0 mm | - | 455 W/m² | - |
| 1778101194 | 33.33° C | 40% | 1018.8 hPa | 0 mm | - | 464 W/m² | - |
| 1778100890 | 33.33° C | 41% | 1018.8 hPa | 0 mm | - | 389 W/m² | - |
| 1778100586 | 35° C | 38% | 1018.7 hPa | 0 mm | - | 472 W/m² | - |
| 1778100285 | 33.89° C | 39% | 1018.9 hPa | 0 mm | - | 503 W/m² | - |
| 1778099982 | 34.44° C | 38% | 1018.8 hPa | 0 mm | - | 542 W/m² | - |
| 1778099679 | 34.44° C | 38% | 1019.2 hPa | 0 mm | - | 527 W/m² | - |
| 1778099376 | 33.89° C | 39% | 1019 hPa | 0 mm | - | 574 W/m² | - |
| 1778099073 | 33.89° C | 42% | 1019.1 hPa | 0 mm | - | 588 W/m² | - |
| 1778098769 | 33.89° C | 41% | 1019 hPa | 0 mm | - | 607 W/m² | - |
| 1778098467 | 34.44° C | 40% | 1019 hPa | 0 mm | - | 616 W/m² | - |
| 1778098163 | 34.44° C | 39% | 1019.1 hPa | 0 mm | - | 627 W/m² | - |
| 1778097860 | 34.44° C | 40% | 1019.2 hPa | 0 mm | - | 651 W/m² | - |
| 1778097556 | 34.44° C | 40% | 1019.2 hPa | 0 mm | - | 642 W/m² | - |
| 1778097253 | 34.44° C | 40% | 1019 hPa | 0 mm | - | 627 W/m² | - |
| 1778096950 | 33.89° C | 40% | 1019.2 hPa | 0 mm | - | 684 W/m² | - |
| 1778096647 | 33.33° C | 43% | 1019.1 hPa | 0 mm | - | 688 W/m² | - |
* Rain latest hour (hover to see other rain measurements)
** Current wind speed in m/s (hover to see current wind gust speed)